sensor_id;sensor_type;location;lat;lon;timestamp;P1;durP1;ratioP1;P2;durP2;ratioP2
77026;SDS011;65956;52.986;17.490;2023-04-16T00:00:52;12.10;;;9.70;;
77026;SDS011;65956;52.986;17.490;2023-04-16T00:03:31;12.60;;;9.70;;
77026;SDS011;65956;52.986;17.490;2023-04-16T00:05:57;12.20;;;9.00;;
77026;SDS011;65956;52.986;17.490;2023-04-16T00:08:23;13.50;;;10.00;;
77026;SDS011;65956;52.986;17.490;2023-04-16T00:10:51;14.20;;;10.10;;
77026;SDS011;65956;52.986;17.490;2023-04-16T00:13:18;13.20;;;9.50;;
77026;SDS011;65956;52.986;17.490;2023-04-16T00:15:44;12.40;;;9.20;;
77026;SDS011;65956;52.986;17.490;2023-04-16T00:18:10;13.30;;;10.00;;
77026;SDS011;65956;52.986;17.490;2023-04-16T00:20:36;13.60;;;10.20;;
77026;SDS011;65956;52.986;17.490;2023-04-16T00:23:02;16.90;;;10.70;;
77026;SDS011;65956;52.986;17.490;2023-04-16T00:25:28;13.40;;;10.20;;
77026;SDS011;65956;52.986;17.490;2023-04-16T00:27:54;14.50;;;10.40;;
77026;SDS011;65956;52.986;17.490;2023-04-16T00:30:21;14.10;;;10.10;;
77026;SDS011;65956;52.986;17.490;2023-04-16T00:32:47;13.00;;;9.90;;
77026;SDS011;65956;52.986;17.490;2023-04-16T00:35:13;14.60;;;10.90;;
77026;SDS011;65956;52.986;17.490;2023-04-16T00:37:39;17.20;;;11.30;;
77026;SDS011;65956;52.986;17.490;2023-04-16T00:40:05;16.80;;;10.40;;
77026;SDS011;65956;52.986;17.490;2023-04-16T00:42:32;15.00;;;11.10;;
77026;SDS011;65956;52.986;17.490;2023-04-16T00:44:58;14.10;;;10.60;;
77026;SDS011;65956;52.986;17.490;2023-04-16T00:47:24;16.50;;;11.30;;
77026;SDS011;65956;52.986;17.490;2023-04-16T00:49:52;14.50;;;10.00;;
77026;SDS011;65956;52.986;17.490;2023-04-16T00:52:19;13.40;;;9.90;;
77026;SDS011;65956;52.986;17.490;2023-04-16T00:54:45;13.50;;;10.60;;
77026;SDS011;65956;52.986;17.490;2023-04-16T00:57:12;14.80;;;10.60;;
77026;SDS011;65956;52.986;17.490;2023-04-16T00:59:40;15.90;;;11.40;;
77026;SDS011;65956;52.986;17.490;2023-04-16T01:02:06;16.20;;;11.50;;
77026;SDS011;65956;52.986;17.490;2023-04-16T01:04:33;14.70;;;10.40;;
77026;SDS011;65956;52.986;17.490;2023-04-16T01:07:00;16.00;;;11.30;;
77026;SDS011;65956;52.986;17.490;2023-04-16T01:09:26;16.90;;;11.80;;
77026;SDS011;65956;52.986;17.490;2023-04-16T01:11:52;16.60;;;11.40;;
77026;SDS011;65956;52.986;17.490;2023-04-16T01:14:18;17.10;;;12.20;;
77026;SDS011;65956;52.986;17.490;2023-04-16T01:16:44;17.20;;;11.80;;
77026;SDS011;65956;52.986;17.490;2023-04-16T01:19:10;16.80;;;11.40;;
77026;SDS011;65956;52.986;17.490;2023-04-16T01:21:36;16.50;;;11.60;;
77026;SDS011;65956;52.986;17.490;2023-04-16T01:24:02;17.40;;;11.70;;
77026;SDS011;65956;52.986;17.490;2023-04-16T01:26:29;16.90;;;11.50;;
77026;SDS011;65956;52.986;17.490;2023-04-16T01:28:57;15.80;;;11.20;;
77026;SDS011;65956;52.986;17.490;2023-04-16T01:31:24;17.40;;;12.00;;
77026;SDS011;65956;52.986;17.490;2023-04-16T01:33:57;15.70;;;10.80;;
77026;SDS011;65956;52.986;17.490;2023-04-16T01:36:23;18.10;;;13.20;;
77026;SDS011;65956;52.986;17.490;2023-04-16T01:38:49;18.10;;;12.90;;
77026;SDS011;65956;52.986;17.490;2023-04-16T01:41:15;18.60;;;13.40;;
77026;SDS011;65956;52.986;17.490;2023-04-16T01:43:41;19.30;;;14.10;;
77026;SDS011;65956;52.986;17.490;2023-04-16T01:46:14;19.20;;;13.40;;
77026;SDS011;65956;52.986;17.490;2023-04-16T01:48:45;18.30;;;12.70;;
77026;SDS011;65956;52.986;17.490;2023-04-16T01:51:11;17.80;;;12.90;;
77026;SDS011;65956;52.986;17.490;2023-04-16T01:53:37;19.10;;;13.40;;
77026;SDS011;65956;52.986;17.490;2023-04-16T01:56:04;19.20;;;13.20;;
77026;SDS011;65956;52.986;17.490;2023-04-16T01:58:31;21.30;;;13.60;;
77026;SDS011;65956;52.986;17.490;2023-04-16T02:00:58;18.40;;;12.70;;
77026;SDS011;65956;52.986;17.490;2023-04-16T02:03:25;21.90;;;14.30;;
77026;SDS011;65956;52.986;17.490;2023-04-16T02:05:52;20.70;;;13.40;;
77026;SDS011;65956;52.986;17.490;2023-04-16T02:08:18;19.50;;;13.10;;
77026;SDS011;65956;52.986;17.490;2023-04-16T02:10:46;19.10;;;13.50;;
77026;SDS011;65956;52.986;17.490;2023-04-16T02:13:15;18.60;;;13.10;;
77026;SDS011;65956;52.986;17.490;2023-04-16T02:15:45;20.40;;;14.80;;
77026;SDS011;65956;52.986;17.490;2023-04-16T02:18:13;20.70;;;14.50;;
77026;SDS011;65956;52.986;17.490;2023-04-16T02:20:42;20.80;;;14.70;;
77026;SDS011;65956;52.986;17.490;2023-04-16T02:23:09;21.20;;;15.00;;
77026;SDS011;65956;52.986;17.490;2023-04-16T02:25:37;22.20;;;14.50;;
77026;SDS011;65956;52.986;17.490;2023-04-16T02:28:08;23.50;;;14.10;;
77026;SDS011;65956;52.986;17.490;2023-04-16T02:30:39;20.40;;;14.20;;
77026;SDS011;65956;52.986;17.490;2023-04-16T02:33:07;22.90;;;14.50;;
77026;SDS011;65956;52.986;17.490;2023-04-16T02:35:34;21.90;;;14.20;;
77026;SDS011;65956;52.986;17.490;2023-04-16T02:38:01;20.90;;;14.60;;
77026;SDS011;65956;52.986;17.490;2023-04-16T02:40:29;21.20;;;14.40;;
77026;SDS011;65956;52.986;17.490;2023-04-16T02:42:55;22.40;;;14.90;;
77026;SDS011;65956;52.986;17.490;2023-04-16T02:45:22;20.70;;;14.00;;
77026;SDS011;65956;52.986;17.490;2023-04-16T02:47:49;21.50;;;13.80;;
77026;SDS011;65956;52.986;17.490;2023-04-16T02:50:15;22.30;;;15.00;;
77026;SDS011;65956;52.986;17.490;2023-04-16T02:52:42;21.00;;;13.70;;
77026;SDS011;65956;52.986;17.490;2023-04-16T02:55:08;20.70;;;13.40;;
77026;SDS011;65956;52.986;17.490;2023-04-16T02:57:35;23.20;;;14.20;;
77026;SDS011;65956;52.986;17.490;2023-04-16T03:00:01;20.30;;;13.60;;
77026;SDS011;65956;52.986;17.490;2023-04-16T03:02:30;22.70;;;13.60;;
77026;SDS011;65956;52.986;17.490;2023-04-16T03:04:56;20.00;;;12.90;;
77026;SDS011;65956;52.986;17.490;2023-04-16T03:07:23;22.70;;;13.90;;
77026;SDS011;65956;52.986;17.490;2023-04-16T03:09:51;20.90;;;13.70;;
77026;SDS011;65956;52.986;17.490;2023-04-16T03:12:17;21.70;;;13.20;;
77026;SDS011;65956;52.986;17.490;2023-04-16T03:14:44;22.00;;;12.80;;
77026;SDS011;65956;52.986;17.490;2023-04-16T03:17:10;20.10;;;12.90;;
77026;SDS011;65956;52.986;17.490;2023-04-16T03:19:37;19.10;;;12.20;;
77026;SDS011;65956;52.986;17.490;2023-04-16T03:22:03;16.70;;;10.60;;
77026;SDS011;65956;52.986;17.490;2023-04-16T03:24:29;18.30;;;12.50;;
77026;SDS011;65956;52.986;17.490;2023-04-16T03:26:58;20.50;;;12.20;;
77026;SDS011;65956;52.986;17.490;2023-04-16T03:29:24;14.30;;;9.30;;
77026;SDS011;65956;52.986;17.490;2023-04-16T03:31:52;18.60;;;11.60;;
77026;SDS011;65956;52.986;17.490;2023-04-16T03:34:18;16.50;;;11.10;;
77026;SDS011;65956;52.986;17.490;2023-04-16T03:36:44;16.40;;;10.40;;
77026;SDS011;65956;52.986;17.490;2023-04-16T03:39:11;16.10;;;10.60;;
77026;SDS011;65956;52.986;17.490;2023-04-16T03:41:37;15.90;;;10.40;;
77026;SDS011;65956;52.986;17.490;2023-04-16T03:44:03;17.30;;;11.30;;
77026;SDS011;65956;52.986;17.490;2023-04-16T03:46:30;18.90;;;11.80;;
77026;SDS011;65956;52.986;17.490;2023-04-16T03:48:56;18.10;;;11.70;;
77026;SDS011;65956;52.986;17.490;2023-04-16T03:51:23;19.20;;;12.70;;
77026;SDS011;65956;52.986;17.490;2023-04-16T03:53:50;16.50;;;11.30;;
77026;SDS011;65956;52.986;17.490;2023-04-16T03:56:16;18.00;;;11.90;;
77026;SDS011;65956;52.986;17.490;2023-04-16T03:58:42;18.10;;;12.10;;
77026;SDS011;65956;52.986;17.490;2023-04-16T04:01:08;17.80;;;11.80;;
77026;SDS011;65956;52.986;17.490;2023-04-16T04:03:34;19.10;;;12.20;;
77026;SDS011;65956;52.986;17.490;2023-04-16T04:06:05;18.40;;;12.60;;
77026;SDS011;65956;52.986;17.490;2023-04-16T04:08:32;18.50;;;12.30;;
77026;SDS011;65956;52.986;17.490;2023-04-16T04:10:58;17.20;;;11.70;;
77026;SDS011;65956;52.986;17.490;2023-04-16T04:13:24;17.00;;;11.30;;
77026;SDS011;65956;52.986;17.490;2023-04-16T04:15:51;15.40;;;10.90;;
77026;SDS011;65956;52.986;17.490;2023-04-16T04:18:19;15.20;;;11.10;;
77026;SDS011;65956;52.986;17.490;2023-04-16T04:20:45;16.10;;;10.30;;
77026;SDS011;65956;52.986;17.490;2023-04-16T04:23:13;15.50;;;10.50;;
77026;SDS011;65956;52.986;17.490;2023-04-16T04:25:40;15.50;;;11.20;;
77026;SDS011;65956;52.986;17.490;2023-04-16T04:28:06;16.90;;;12.10;;
77026;SDS011;65956;52.986;17.490;2023-04-16T04:30:32;13.90;;;10.20;;
77026;SDS011;65956;52.986;17.490;2023-04-16T04:33:01;14.50;;;9.40;;
77026;SDS011;65956;52.986;17.490;2023-04-16T04:35:27;11.90;;;9.20;;
77026;SDS011;65956;52.986;17.490;2023-04-16T04:37:53;13.90;;;9.70;;
77026;SDS011;65956;52.986;17.490;2023-04-16T04:40:19;12.70;;;9.20;;
77026;SDS011;65956;52.986;17.490;2023-04-16T04:42:45;13.00;;;9.30;;
77026;SDS011;65956;52.986;17.490;2023-04-16T04:45:11;12.90;;;9.50;;
77026;SDS011;65956;52.986;17.490;2023-04-16T04:47:38;11.70;;;8.30;;
77026;SDS011;65956;52.986;17.490;2023-04-16T04:50:04;12.50;;;8.90;;
77026;SDS011;65956;52.986;17.490;2023-04-16T04:52:31;13.20;;;9.00;;
77026;SDS011;65956;52.986;17.490;2023-04-16T04:54:57;16.10;;;9.60;;
77026;SDS011;65956;52.986;17.490;2023-04-16T04:57:23;14.80;;;10.40;;
77026;SDS011;65956;52.986;17.490;2023-04-16T04:59:52;12.60;;;9.40;;
77026;SDS011;65956;52.986;17.490;2023-04-16T05:02:18;12.60;;;8.60;;
77026;SDS011;65956;52.986;17.490;2023-04-16T05:04:44;14.70;;;9.50;;
77026;SDS011;65956;52.986;17.490;2023-04-16T05:07:10;14.60;;;10.30;;
77026;SDS011;65956;52.986;17.490;2023-04-16T05:09:36;16.30;;;10.20;;
77026;SDS011;65956;52.986;17.490;2023-04-16T05:12:02;17.90;;;10.00;;
77026;SDS011;65956;52.986;17.490;2023-04-16T05:14:28;15.30;;;9.10;;
77026;SDS011;65956;52.986;17.490;2023-04-16T05:16:54;12.40;;;8.50;;
77026;SDS011;65956;52.986;17.490;2023-04-16T05:19:21;12.80;;;8.50;;
77026;SDS011;65956;52.986;17.490;2023-04-16T05:21:47;11.90;;;7.50;;
77026;SDS011;65956;52.986;17.490;2023-04-16T05:24:13;11.70;;;7.40;;
77026;SDS011;65956;52.986;17.490;2023-04-16T05:26:39;13.20;;;8.10;;
77026;SDS011;65956;52.986;17.490;2023-04-16T05:29:05;11.10;;;7.50;;
77026;SDS011;65956;52.986;17.490;2023-04-16T05:31:31;11.60;;;7.70;;
77026;SDS011;65956;52.986;17.490;2023-04-16T05:33:57;12.00;;;7.80;;
77026;SDS011;65956;52.986;17.490;2023-04-16T05:36:23;9.80;;;7.10;;
77026;SDS011;65956;52.986;17.490;2023-04-16T05:38:49;10.80;;;7.10;;
77026;SDS011;65956;52.986;17.490;2023-04-16T05:41:15;12.00;;;7.90;;
77026;SDS011;65956;52.986;17.490;2023-04-16T05:43:41;11.50;;;7.70;;
77026;SDS011;65956;52.986;17.490;2023-04-16T05:46:07;10.90;;;7.60;;
77026;SDS011;65956;52.986;17.490;2023-04-16T05:48:33;14.20;;;8.50;;
77026;SDS011;65956;52.986;17.490;2023-04-16T05:50:59;12.50;;;7.90;;
77026;SDS011;65956;52.986;17.490;2023-04-16T05:53:26;12.40;;;8.80;;
77026;SDS011;65956;52.986;17.490;2023-04-16T05:55:52;12.90;;;8.70;;
77026;SDS011;65956;52.986;17.490;2023-04-16T05:58:18;13.20;;;8.80;;
77026;SDS011;65956;52.986;17.490;2023-04-16T06:00:44;11.10;;;7.50;;
77026;SDS011;65956;52.986;17.490;2023-04-16T06:03:10;12.70;;;8.10;;
77026;SDS011;65956;52.986;17.490;2023-04-16T06:05:36;13.10;;;8.10;;
77026;SDS011;65956;52.986;17.490;2023-04-16T06:08:02;16.00;;;8.30;;
77026;SDS011;65956;52.986;17.490;2023-04-16T06:10:28;12.80;;;9.10;;
77026;SDS011;65956;52.986;17.490;2023-04-16T06:12:55;12.70;;;8.60;;
77026;SDS011;65956;52.986;17.490;2023-04-16T06:15:21;12.30;;;8.20;;
77026;SDS011;65956;52.986;17.490;2023-04-16T06:17:47;13.30;;;9.50;;
77026;SDS011;65956;52.986;17.490;2023-04-16T06:20:14;13.90;;;9.10;;
77026;SDS011;65956;52.986;17.490;2023-04-16T06:22:40;13.70;;;9.20;;
77026;SDS011;65956;52.986;17.490;2023-04-16T06:25:06;14.40;;;9.20;;
77026;SDS011;65956;52.986;17.490;2023-04-16T06:27:33;14.40;;;8.80;;
77026;SDS011;65956;52.986;17.490;2023-04-16T06:29:59;13.00;;;8.90;;
77026;SDS011;65956;52.986;17.490;2023-04-16T06:32:25;15.40;;;10.00;;
77026;SDS011;65956;52.986;17.490;2023-04-16T06:34:51;15.30;;;9.30;;
77026;SDS011;65956;52.986;17.490;2023-04-16T06:37:17;13.80;;;9.40;;
77026;SDS011;65956;52.986;17.490;2023-04-16T06:39:43;13.00;;;8.80;;
77026;SDS011;65956;52.986;17.490;2023-04-16T06:42:09;14.00;;;9.20;;
77026;SDS011;65956;52.986;17.490;2023-04-16T06:44:35;13.60;;;9.30;;
77026;SDS011;65956;52.986;17.490;2023-04-16T06:47:01;15.40;;;9.90;;
77026;SDS011;65956;52.986;17.490;2023-04-16T06:49:27;14.60;;;9.70;;
77026;SDS011;65956;52.986;17.490;2023-04-16T06:51:53;15.40;;;9.60;;
77026;SDS011;65956;52.986;17.490;2023-04-16T06:54:19;15.80;;;9.50;;
77026;SDS011;65956;52.986;17.490;2023-04-16T06:56:45;14.20;;;9.70;;
77026;SDS011;65956;52.986;17.490;2023-04-16T06:59:11;14.70;;;9.40;;
77026;SDS011;65956;52.986;17.490;2023-04-16T07:01:37;14.10;;;9.20;;
77026;SDS011;65956;52.986;17.490;2023-04-16T07:04:04;12.30;;;7.80;;
77026;SDS011;65956;52.986;17.490;2023-04-16T07:06:30;14.20;;;9.40;;
77026;SDS011;65956;52.986;17.490;2023-04-16T07:08:56;18.10;;;12.30;;
77026;SDS011;65956;52.986;17.490;2023-04-16T07:11:22;15.90;;;10.60;;
77026;SDS011;65956;52.986;17.490;2023-04-16T07:13:48;15.50;;;12.10;;
77026;SDS011;65956;52.986;17.490;2023-04-16T07:16:16;19.60;;;16.20;;
77026;SDS011;65956;52.986;17.490;2023-04-16T07:18:42;150.10;;;95.60;;
77026;SDS011;65956;52.986;17.490;2023-04-16T07:21:09;154.90;;;92.50;;
77026;SDS011;65956;52.986;17.490;2023-04-16T07:23:35;255.70;;;163.30;;
77026;SDS011;65956;52.986;17.490;2023-04-16T07:26:01;40.30;;;29.00;;
77026;SDS011;65956;52.986;17.490;2023-04-16T07:28:27;30.20;;;25.70;;
77026;SDS011;65956;52.986;17.490;2023-04-16T07:30:53;18.30;;;12.50;;
77026;SDS011;65956;52.986;17.490;2023-04-16T07:33:20;13.40;;;9.60;;
77026;SDS011;65956;52.986;17.490;2023-04-16T07:35:46;38.00;;;32.70;;
77026;SDS011;65956;52.986;17.490;2023-04-16T07:38:12;16.30;;;10.20;;
77026;SDS011;65956;52.986;17.490;2023-04-16T07:40:39;14.40;;;9.40;;
77026;SDS011;65956;52.986;17.490;2023-04-16T07:43:05;12.80;;;7.80;;
77026;SDS011;65956;52.986;17.490;2023-04-16T07:45:31;12.80;;;9.00;;
77026;SDS011;65956;52.986;17.490;2023-04-16T07:47:57;16.70;;;9.60;;
77026;SDS011;65956;52.986;17.490;2023-04-16T07:50:24;15.80;;;10.60;;
77026;SDS011;65956;52.986;17.490;2023-04-16T07:52:50;15.00;;;9.90;;
77026;SDS011;65956;52.986;17.490;2023-04-16T07:55:16;12.00;;;8.00;;
77026;SDS011;65956;52.986;17.490;2023-04-16T07:57:42;11.60;;;7.90;;
77026;SDS011;65956;52.986;17.490;2023-04-16T08:00:09;15.00;;;9.80;;
77026;SDS011;65956;52.986;17.490;2023-04-16T08:02:39;14.40;;;10.00;;
77026;SDS011;65956;52.986;17.490;2023-04-16T08:05:06;13.40;;;8.80;;
77026;SDS011;65956;52.986;17.490;2023-04-16T08:07:32;15.00;;;10.30;;
77026;SDS011;65956;52.986;17.490;2023-04-16T08:09:58;13.50;;;9.30;;
77026;SDS011;65956;52.986;17.490;2023-04-16T08:12:24;13.90;;;9.20;;
77026;SDS011;65956;52.986;17.490;2023-04-16T08:14:50;15.20;;;9.80;;
77026;SDS011;65956;52.986;17.490;2023-04-16T08:17:17;14.30;;;9.10;;
77026;SDS011;65956;52.986;17.490;2023-04-16T08:19:43;14.30;;;9.90;;
77026;SDS011;65956;52.986;17.490;2023-04-16T08:22:12;15.10;;;9.40;;
77026;SDS011;65956;52.986;17.490;2023-04-16T08:24:39;12.90;;;8.80;;
77026;SDS011;65956;52.986;17.490;2023-04-16T08:27:05;16.60;;;10.30;;
77026;SDS011;65956;52.986;17.490;2023-04-16T08:29:31;14.70;;;10.50;;
77026;SDS011;65956;52.986;17.490;2023-04-16T08:31:58;14.70;;;9.70;;
77026;SDS011;65956;52.986;17.490;2023-04-16T08:34:24;14.30;;;9.40;;
77026;SDS011;65956;52.986;17.490;2023-04-16T08:36:50;13.20;;;9.80;;
77026;SDS011;65956;52.986;17.490;2023-04-16T08:39:16;16.20;;;10.50;;
77026;SDS011;65956;52.986;17.490;2023-04-16T08:41:43;16.10;;;10.30;;
77026;SDS011;65956;52.986;17.490;2023-04-16T08:44:24;16.00;;;9.70;;
77026;SDS011;65956;52.986;17.490;2023-04-16T08:46:53;14.00;;;9.30;;
77026;SDS011;65956;52.986;17.490;2023-04-16T08:49:24;14.40;;;9.40;;
77026;SDS011;65956;52.986;17.490;2023-04-16T08:51:52;15.70;;;9.50;;
77026;SDS011;65956;52.986;17.490;2023-04-16T08:54:26;15.00;;;9.40;;
77026;SDS011;65956;52.986;17.490;2023-04-16T08:56:57;13.60;;;9.30;;
77026;SDS011;65956;52.986;17.490;2023-04-16T08:59:26;14.00;;;8.80;;
77026;SDS011;65956;52.986;17.490;2023-04-16T09:01:57;15.00;;;9.10;;
77026;SDS011;65956;52.986;17.490;2023-04-16T09:04:27;14.70;;;9.80;;
77026;SDS011;65956;52.986;17.490;2023-04-16T09:06:57;16.40;;;10.20;;
77026;SDS011;65956;52.986;17.490;2023-04-16T09:09:26;16.30;;;9.80;;
77026;SDS011;65956;52.986;17.490;2023-04-16T09:11:55;30.00;;;17.70;;
77026;SDS011;65956;52.986;17.490;2023-04-16T09:14:21;38.70;;;23.00;;
77026;SDS011;65956;52.986;17.490;2023-04-16T09:16:47;35.30;;;20.30;;
77026;SDS011;65956;52.986;17.490;2023-04-16T09:19:16;39.00;;;23.00;;
77026;SDS011;65956;52.986;17.490;2023-04-16T09:21:42;18.50;;;11.00;;
77026;SDS011;65956;52.986;17.490;2023-04-16T09:24:11;21.80;;;14.40;;
77026;SDS011;65956;52.986;17.490;2023-04-16T09:26:39;20.00;;;10.70;;
77026;SDS011;65956;52.986;17.490;2023-04-16T09:29:08;17.10;;;11.10;;
77026;SDS011;65956;52.986;17.490;2023-04-16T09:31:34;17.60;;;10.30;;
77026;SDS011;65956;52.986;17.490;2023-04-16T09:36:26;16.00;;;9.70;;
77026;SDS011;65956;52.986;17.490;2023-04-16T09:38:53;17.70;;;10.70;;
77026;SDS011;65956;52.986;17.490;2023-04-16T09:41:24;15.90;;;9.10;;
77026;SDS011;65956;52.986;17.490;2023-04-16T09:44:01;12.50;;;7.60;;
77026;SDS011;65956;52.986;17.490;2023-04-16T09:46:30;15.00;;;9.40;;
77026;SDS011;65956;52.986;17.490;2023-04-16T09:49:09;12.00;;;8.00;;
77026;SDS011;65956;52.986;17.490;2023-04-16T09:51:40;9.90;;;6.50;;
77026;SDS011;65956;52.986;17.490;2023-04-16T09:54:08;11.20;;;6.50;;
77026;SDS011;65956;52.986;17.490;2023-04-16T09:56:39;13.00;;;7.30;;
77026;SDS011;65956;52.986;17.490;2023-04-16T09:59:18;11.10;;;6.40;;
77026;SDS011;65956;52.986;17.490;2023-04-16T10:04:14;14.60;;;8.50;;
77026;SDS011;65956;52.986;17.490;2023-04-16T10:06:41;10.60;;;7.00;;
77026;SDS011;65956;52.986;17.490;2023-04-16T10:09:07;13.60;;;7.90;;
77026;SDS011;65956;52.986;17.490;2023-04-16T10:11:35;21.80;;;12.70;;
77026;SDS011;65956;52.986;17.490;2023-04-16T10:14:02;15.50;;;9.40;;
77026;SDS011;65956;52.986;17.490;2023-04-16T10:16:28;16.80;;;11.80;;
77026;SDS011;65956;52.986;17.490;2023-04-16T10:18:55;11.00;;;7.10;;
77026;SDS011;65956;52.986;17.490;2023-04-16T10:21:21;10.70;;;6.90;;
77026;SDS011;65956;52.986;17.490;2023-04-16T10:23:47;18.10;;;14.20;;
77026;SDS011;65956;52.986;17.490;2023-04-16T10:26:17;13.20;;;8.70;;
77026;SDS011;65956;52.986;17.490;2023-04-16T10:28:43;16.00;;;10.20;;
77026;SDS011;65956;52.986;17.490;2023-04-16T10:31:10;13.70;;;8.60;;
77026;SDS011;65956;52.986;17.490;2023-04-16T10:33:40;15.20;;;8.40;;
77026;SDS011;65956;52.986;17.490;2023-04-16T10:36:08;11.70;;;7.10;;
77026;SDS011;65956;52.986;17.490;2023-04-16T10:38:39;10.20;;;6.50;;
77026;SDS011;65956;52.986;17.490;2023-04-16T10:41:09;12.60;;;8.00;;
77026;SDS011;65956;52.986;17.490;2023-04-16T10:43:45;14.20;;;8.10;;
77026;SDS011;65956;52.986;17.490;2023-04-16T10:46:25;13.40;;;9.10;;
77026;SDS011;65956;52.986;17.490;2023-04-16T10:48:55;11.70;;;6.90;;
77026;SDS011;65956;52.986;17.490;2023-04-16T10:51:29;11.70;;;6.80;;
77026;SDS011;65956;52.986;17.490;2023-04-16T10:54:03;11.40;;;7.10;;
77026;SDS011;65956;52.986;17.490;2023-04-16T10:57:05;27.20;;;18.20;;
77026;SDS011;65956;52.986;17.490;2023-04-16T10:59:34;17.80;;;10.60;;
77026;SDS011;65956;52.986;17.490;2023-04-16T11:04:37;18.00;;;8.90;;
77026;SDS011;65956;52.986;17.490;2023-04-16T11:12:39;22.10;;;12.10;;
77026;SDS011;65956;52.986;17.490;2023-04-16T11:15:10;22.70;;;12.90;;
77026;SDS011;65956;52.986;17.490;2023-04-16T11:17:38;19.80;;;12.60;;
77026;SDS011;65956;52.986;17.490;2023-04-16T11:20:26;18.20;;;12.50;;
77026;SDS011;65956;52.986;17.490;2023-04-16T11:22:53;18.00;;;10.80;;
77026;SDS011;65956;52.986;17.490;2023-04-16T11:25:21;23.50;;;14.00;;
77026;SDS011;65956;52.986;17.490;2023-04-16T11:27:49;23.30;;;12.60;;
77026;SDS011;65956;52.986;17.490;2023-04-16T11:30:17;21.20;;;14.40;;
77026;SDS011;65956;52.986;17.490;2023-04-16T11:32:44;23.00;;;12.30;;
77026;SDS011;65956;52.986;17.490;2023-04-16T11:35:17;23.20;;;10.50;;
77026;SDS011;65956;52.986;17.490;2023-04-16T11:37:44;15.60;;;9.50;;
77026;SDS011;65956;52.986;17.490;2023-04-16T11:40:13;20.90;;;12.30;;
77026;SDS011;65956;52.986;17.490;2023-04-16T11:42:39;14.30;;;8.70;;
77026;SDS011;65956;52.986;17.490;2023-04-16T11:45:07;14.90;;;8.60;;
77026;SDS011;65956;52.986;17.490;2023-04-16T11:47:47;15.60;;;9.70;;
77026;SDS011;65956;52.986;17.490;2023-04-16T11:52:43;11.60;;;7.20;;
77026;SDS011;65956;52.986;17.490;2023-04-16T11:55:09;13.70;;;8.10;;
77026;SDS011;65956;52.986;17.490;2023-04-16T11:57:35;16.50;;;9.40;;
77026;SDS011;65956;52.986;17.490;2023-04-16T12:00:03;15.10;;;8.30;;
77026;SDS011;65956;52.986;17.490;2023-04-16T12:02:39;13.80;;;8.60;;
77026;SDS011;65956;52.986;17.490;2023-04-16T12:07:56;17.30;;;9.90;;
77026;SDS011;65956;52.986;17.490;2023-04-16T12:10:22;17.50;;;10.70;;
77026;SDS011;65956;52.986;17.490;2023-04-16T12:12:49;17.70;;;10.20;;
77026;SDS011;65956;52.986;17.490;2023-04-16T12:15:15;17.40;;;10.40;;
77026;SDS011;65956;52.986;17.490;2023-04-16T12:17:41;18.90;;;10.80;;
77026;SDS011;65956;52.986;17.490;2023-04-16T12:20:11;18.10;;;11.00;;
77026;SDS011;65956;52.986;17.490;2023-04-16T12:22:46;17.70;;;10.70;;
77026;SDS011;65956;52.986;17.490;2023-04-16T12:25:16;18.20;;;10.20;;
77026;SDS011;65956;52.986;17.490;2023-04-16T12:27:49;18.10;;;10.40;;
77026;SDS011;65956;52.986;17.490;2023-04-16T12:30:17;16.50;;;11.00;;
77026;SDS011;65956;52.986;17.490;2023-04-16T12:32:46;21.00;;;12.70;;
77026;SDS011;65956;52.986;17.490;2023-04-16T12:35:13;19.30;;;12.30;;
77026;SDS011;65956;52.986;17.490;2023-04-16T12:37:55;20.10;;;11.40;;
77026;SDS011;65956;52.986;17.490;2023-04-16T12:40:21;21.30;;;11.30;;
77026;SDS011;65956;52.986;17.490;2023-04-16T12:42:47;19.80;;;12.50;;
77026;SDS011;65956;52.986;17.490;2023-04-16T12:45:13;20.20;;;11.70;;
77026;SDS011;65956;52.986;17.490;2023-04-16T12:47:39;18.20;;;10.70;;
77026;SDS011;65956;52.986;17.490;2023-04-16T12:50:05;19.20;;;11.10;;
77026;SDS011;65956;52.986;17.490;2023-04-16T12:52:33;20.90;;;11.40;;
77026;SDS011;65956;52.986;17.490;2023-04-16T12:55:00;19.70;;;11.60;;
77026;SDS011;65956;52.986;17.490;2023-04-16T12:57:27;16.90;;;10.80;;
77026;SDS011;65956;52.986;17.490;2023-04-16T12:59:56;17.60;;;10.50;;
77026;SDS011;65956;52.986;17.490;2023-04-16T13:02:23;19.20;;;11.20;;
77026;SDS011;65956;52.986;17.490;2023-04-16T13:04:50;18.40;;;11.00;;
77026;SDS011;65956;52.986;17.490;2023-04-16T13:07:17;16.10;;;10.20;;
77026;SDS011;65956;52.986;17.490;2023-04-16T13:09:44;14.80;;;10.00;;
77026;SDS011;65956;52.986;17.490;2023-04-16T13:12:11;22.90;;;13.10;;
77026;SDS011;65956;52.986;17.490;2023-04-16T13:14:37;20.60;;;12.00;;
77026;SDS011;65956;52.986;17.490;2023-04-16T13:17:03;23.20;;;12.10;;
77026;SDS011;65956;52.986;17.490;2023-04-16T13:19:30;17.30;;;10.90;;
77026;SDS011;65956;52.986;17.490;2023-04-16T13:21:56;16.10;;;9.80;;
77026;SDS011;65956;52.986;17.490;2023-04-16T13:24:23;15.70;;;9.90;;
77026;SDS011;65956;52.986;17.490;2023-04-16T13:26:50;15.00;;;9.30;;
77026;SDS011;65956;52.986;17.490;2023-04-16T13:29:21;15.10;;;9.10;;
77026;SDS011;65956;52.986;17.490;2023-04-16T13:31:47;16.20;;;9.60;;
77026;SDS011;65956;52.986;17.490;2023-04-16T13:34:14;16.70;;;9.30;;
77026;SDS011;65956;52.986;17.490;2023-04-16T13:36:40;17.00;;;9.50;;
77026;SDS011;65956;52.986;17.490;2023-04-16T13:39:06;17.00;;;8.70;;
77026;SDS011;65956;52.986;17.490;2023-04-16T13:41:36;16.20;;;9.30;;
77026;SDS011;65956;52.986;17.490;2023-04-16T13:44:02;18.90;;;9.70;;
77026;SDS011;65956;52.986;17.490;2023-04-16T13:46:29;17.80;;;11.00;;
77026;SDS011;65956;52.986;17.490;2023-04-16T13:48:55;19.00;;;11.30;;
77026;SDS011;65956;52.986;17.490;2023-04-16T13:51:21;19.20;;;11.60;;
77026;SDS011;65956;52.986;17.490;2023-04-16T13:53:48;17.50;;;10.10;;
77026;SDS011;65956;52.986;17.490;2023-04-16T13:56:14;17.80;;;11.70;;
77026;SDS011;65956;52.986;17.490;2023-04-16T13:58:40;20.50;;;11.30;;
77026;SDS011;65956;52.986;17.490;2023-04-16T14:01:06;20.50;;;12.10;;
77026;SDS011;65956;52.986;17.490;2023-04-16T14:03:33;21.40;;;11.50;;
77026;SDS011;65956;52.986;17.490;2023-04-16T14:06:03;19.30;;;11.50;;
77026;SDS011;65956;52.986;17.490;2023-04-16T14:08:30;18.40;;;11.80;;
77026;SDS011;65956;52.986;17.490;2023-04-16T14:10:56;20.60;;;11.60;;
77026;SDS011;65956;52.986;17.490;2023-04-16T14:13:23;18.90;;;10.40;;
77026;SDS011;65956;52.986;17.490;2023-04-16T14:15:52;32.80;;;16.60;;
77026;SDS011;65956;52.986;17.490;2023-04-16T14:18:19;25.50;;;12.50;;
77026;SDS011;65956;52.986;17.490;2023-04-16T14:20:45;24.00;;;11.80;;
77026;SDS011;65956;52.986;17.490;2023-04-16T14:23:12;21.50;;;12.00;;
77026;SDS011;65956;52.986;17.490;2023-04-16T14:25:38;18.00;;;11.00;;
77026;SDS011;65956;52.986;17.490;2023-04-16T14:28:04;20.00;;;12.00;;
77026;SDS011;65956;52.986;17.490;2023-04-16T14:30:30;19.20;;;10.90;;
77026;SDS011;65956;52.986;17.490;2023-04-16T14:32:56;18.50;;;10.50;;